KNEW

Lakefront Airport

New Orleans, Louisiana, USA
METAR KNEW 140032Z 12010KT 10SM BKN004 17/16 A2981 RMK AO2 T01670156
Observed Flight Rules
Dec-14 @ 00:32 UTC (11 minutes ago) Instrument Flight Rules
Wind Visibility Clouds
120° at 10 knots 10 miles
  • Broken at 400' AGL
Temperatures Readings
Current 17°C / 63°F
Dewpoint 16°C / 61°F
Humidity 94%
Altimeter 29.81" Hg
Pressure 1009 hPa
Elevation 3
METAR KNEW 140032Z 12010KT 10SM BKN004 17/16 A2981 RMK AO2 T01670156
Observed Flight Rules
Dec-14 @ 00:32 UTC
(11 minutes ago)
LIFR
Wind Visibility
120° at 10 knots 10 miles
Clouds
  • Broken at 400' AGL
Temperature Dewpoint
17°C / 63°F 16°C / 61°F
Humidity Altimeter Pressure
94% 29.81" Hg 1009 hPa